createdAt,value
2022-07-29T00:01:44.501Z,38.98
2022-07-29T00:04:14.130Z,38.87
2022-07-29T00:06:42.961Z,38.88
2022-07-29T00:09:12.689Z,38.74
2022-07-29T00:11:41.264Z,38.69
2022-07-29T00:14:10.351Z,38.59
2022-07-29T00:16:39.030Z,38.54
2022-07-29T00:19:07.907Z,39.32
2022-07-29T00:24:05.190Z,38.99
2022-07-29T00:26:35.002Z,39.16
2022-07-29T00:29:33.021Z,39.08
2022-07-29T00:31:54.292Z,38.80
2022-07-29T00:34:40.425Z,39.33
2022-07-29T00:37:08.843Z,38.96
2022-07-29T00:39:37.277Z,40.08
2022-07-29T00:42:08.893Z,39.39
2022-07-29T00:44:40.028Z,39.56
2022-07-29T00:47:08.974Z,39.38
2022-07-29T00:49:38.247Z,40.79
2022-07-29T00:52:09.048Z,39.73
2022-07-29T00:54:44.076Z,39.54
2022-07-29T00:57:15.038Z,38.95
2022-07-29T00:59:43.476Z,37.74
2022-07-29T01:02:12.170Z,37.75
2022-07-29T01:04:41.000Z,37.68
2022-07-29T01:07:10.065Z,37.61
2022-07-29T01:09:46.251Z,37.79
2022-07-29T01:12:20.508Z,38.08
2022-07-29T01:14:51.325Z,37.18
2022-07-29T01:17:26.655Z,37.31
2022-07-29T01:20:04.517Z,37.46
2022-07-29T01:22:55.193Z,37.31
2022-07-29T01:25:53.271Z,36.92
2022-07-29T01:28:56.813Z,37.14
2022-07-29T01:31:32.085Z,36.84
2022-07-29T01:34:06.634Z,37.23
2022-07-29T01:36:46.274Z,37.77
2022-07-29T01:39:27.113Z,37.48
2022-07-29T01:42:03.319Z,38.03
2022-07-29T01:44:42.142Z,37.67
2022-07-29T01:47:17.879Z,38.06
2022-07-29T01:49:52.716Z,38.25
2022-07-29T01:52:28.208Z,38.49
2022-07-29T01:55:01.091Z,38.62
2022-07-29T01:57:34.050Z,39.00
2022-07-29T02:00:07.413Z,39.50
2022-07-29T02:02:45.703Z,39.64
2022-07-29T02:05:18.440Z,40.23
2022-07-29T02:07:50.103Z,40.47
2022-07-29T02:10:21.988Z,40.66
2022-07-29T02:12:56.829Z,41.50
2022-07-29T02:15:29.000Z,41.88
2022-07-29T02:18:02.563Z,41.93
2022-07-29T02:20:32.949Z,42.33
2022-07-29T02:23:04.687Z,42.49
2022-07-29T02:25:38.080Z,42.69
2022-07-29T02:28:08.598Z,43.19
2022-07-29T02:30:42.554Z,43.07
2022-07-29T02:33:15.703Z,43.57
2022-07-29T02:35:48.266Z,43.93
2022-07-29T02:38:36.681Z,44.26
2022-07-29T02:41:12.456Z,44.20
2022-07-29T02:43:41.747Z,44.71
2022-07-29T02:46:29.060Z,44.84
2022-07-29T02:49:05.124Z,45.24
2022-07-29T02:51:45.079Z,45.33
2022-07-29T02:54:24.894Z,45.30
2022-07-29T02:56:56.603Z,45.57
2022-07-29T02:59:29.210Z,45.79
2022-07-29T03:02:01.647Z,45.66
2022-07-29T03:04:31.114Z,46.00
2022-07-29T03:07:02.304Z,45.93
2022-07-29T03:09:31.984Z,46.11
2022-07-29T03:12:02.792Z,46.23
2022-07-29T03:14:32.241Z,46.40
2022-07-29T03:17:02.732Z,46.43
2022-07-29T03:19:31.512Z,46.77
2022-07-29T03:22:00.889Z,46.93
2022-07-29T03:24:32.140Z,47.81
2022-07-29T03:27:01.170Z,48.45
2022-07-29T03:29:33.894Z,48.92
2022-07-29T03:32:07.191Z,49.05
2022-07-29T03:34:37.808Z,49.42
2022-07-29T03:37:08.050Z,50.06
2022-07-29T03:39:43.009Z,50.99
2022-07-29T03:42:15.092Z,51.53
2022-07-29T03:44:46.795Z,52.00
2022-07-29T03:47:19.777Z,52.79
2022-07-29T03:49:52.865Z,53.51
2022-07-29T03:52:22.221Z,53.36
2022-07-29T03:54:51.506Z,53.61
2022-07-29T03:57:22.779Z,54.59
2022-07-29T03:59:51.812Z,55.07
2022-07-29T04:02:24.461Z,55.82
2022-07-29T04:04:56.095Z,56.27
2022-07-29T04:07:24.538Z,56.04
2022-07-29T04:09:53.066Z,55.80
2022-07-29T04:12:22.048Z,55.96
2022-07-29T04:14:51.197Z,55.73
2022-07-29T04:17:21.064Z,54.90
2022-07-29T04:19:49.530Z,55.17
2022-07-29T04:22:17.955Z,55.00
2022-07-29T04:24:46.406Z,54.47
2022-07-29T04:27:15.079Z,54.20
2022-07-29T04:29:57.015Z,53.96
2022-07-29T04:32:28.286Z,53.28
2022-07-29T04:34:56.773Z,52.62
2022-07-29T04:37:25.122Z,52.59
2022-07-29T04:39:53.465Z,52.34
2022-07-29T04:42:27.804Z,52.05
2022-07-29T04:44:57.705Z,51.55
2022-07-29T04:47:31.257Z,51.73
2022-07-29T04:49:59.961Z,50.93
2022-07-29T04:52:28.524Z,50.54
2022-07-29T04:54:56.879Z,50.10
2022-07-29T04:57:25.367Z,49.71
2022-07-29T04:59:53.796Z,49.69
2022-07-29T05:02:22.911Z,49.28
2022-07-29T05:04:52.759Z,48.04
2022-07-29T05:07:21.267Z,46.64
2022-07-29T05:09:50.120Z,45.68
2022-07-29T05:12:18.691Z,44.18
2022-07-29T05:14:47.134Z,43.11
2022-07-29T05:17:15.676Z,43.37
2022-07-29T05:19:44.039Z,40.89
2022-07-29T05:22:13.913Z,40.26
2022-07-29T05:24:42.492Z,39.63
2022-07-29T05:27:11.509Z,39.90
2022-07-29T05:29:43.794Z,39.78
2022-07-29T05:32:13.829Z,39.62
2022-07-29T05:34:50.783Z,39.20
2022-07-29T05:37:21.933Z,39.37
2022-07-29T05:39:56.867Z,39.33
2022-07-29T05:42:26.786Z,38.80
2022-07-29T05:44:55.549Z,39.17
2022-07-29T05:47:24.484Z,38.69
2022-07-29T05:49:53.156Z,38.95
2022-07-29T05:52:23.741Z,39.53
2022-07-29T05:54:52.153Z,38.79
2022-07-29T05:57:21.978Z,39.55
2022-07-29T05:59:51.298Z,39.25
2022-07-29T06:02:20.525Z,37.84
2022-07-29T06:04:49.707Z,38.02
2022-07-29T06:07:18.355Z,37.47
2022-07-29T06:09:48.253Z,37.44
2022-07-29T06:12:16.755Z,36.94
2022-07-29T06:14:45.208Z,37.78
2022-07-29T06:17:13.719Z,37.00
2022-07-29T06:19:42.277Z,37.48
2022-07-29T06:22:10.763Z,37.03
2022-07-29T06:24:42.427Z,38.12
2022-07-29T06:27:12.394Z,37.08
2022-07-29T06:29:41.426Z,37.29
2022-07-29T06:32:10.194Z,36.29
2022-07-29T06:34:38.743Z,36.08
2022-07-29T06:37:15.346Z,35.37
2022-07-29T06:39:44.286Z,34.55
2022-07-29T06:42:14.083Z,34.60
2022-07-29T06:44:43.843Z,35.21
2022-07-29T06:47:12.312Z,35.04
2022-07-29T06:49:40.827Z,34.38
2022-07-29T06:52:09.253Z,35.04
2022-07-29T06:54:37.674Z,34.62
2022-07-29T06:57:06.369Z,34.50
2022-07-29T06:59:36.275Z,34.74
2022-07-29T07:02:05.020Z,34.56
2022-07-29T07:04:34.439Z,33.96
2022-07-29T07:07:02.909Z,32.69
2022-07-29T07:09:40.662Z,33.28
2022-07-29T07:12:10.003Z,34.55
2022-07-29T07:14:40.821Z,33.29
2022-07-29T07:17:09.417Z,32.39
2022-07-29T07:19:37.936Z,33.28
2022-07-29T07:22:06.360Z,32.81
2022-07-29T07:24:34.800Z,32.47
2022-07-29T07:27:03.268Z,32.86
2022-07-29T07:29:31.726Z,32.49
2022-07-29T07:32:01.680Z,32.50
2022-07-29T07:34:31.106Z,31.78
2022-07-29T07:36:59.584Z,32.05
2022-07-29T07:39:28.162Z,31.64
2022-07-29T07:41:56.703Z,30.76
2022-07-29T07:44:25.097Z,31.56
2022-07-29T07:46:53.605Z,32.45
2022-07-29T07:49:24.734Z,32.61
2022-07-29T07:51:53.609Z,30.56
2022-07-29T07:54:22.101Z,30.87
2022-07-29T07:56:53.338Z,30.61
2022-07-29T07:59:22.061Z,30.46
2022-07-29T08:01:55.568Z,30.01
2022-07-29T08:04:28.482Z,29.62
2022-07-29T08:06:58.664Z,29.28
2022-07-29T08:09:30.373Z,29.92
2022-07-29T08:12:00.209Z,29.04
2022-07-29T08:14:28.666Z,29.58
2022-07-29T08:16:57.070Z,29.25
2022-07-29T08:19:26.952Z,29.26
2022-07-29T08:21:55.934Z,28.17
2022-07-29T08:24:47.586Z,27.50
2022-07-29T08:27:42.002Z,27.94
2022-07-29T08:30:05.881Z,28.11
2022-07-29T08:32:52.427Z,27.33
2022-07-29T08:35:23.791Z,27.57
2022-07-29T08:37:52.395Z,27.36
2022-07-29T08:40:31.894Z,28.48
2022-07-29T08:43:01.845Z,27.37
2022-07-29T08:45:31.780Z,25.75
2022-07-29T08:48:00.935Z,24.70
2022-07-29T08:50:30.989Z,24.43
2022-07-29T08:53:00.441Z,26.55
2022-07-29T08:55:29.940Z,25.77
2022-07-29T08:57:59.007Z,25.51
2022-07-29T09:00:28.397Z,25.04
2022-07-29T09:03:00.801Z,25.43
2022-07-29T09:05:31.160Z,25.87
2022-07-29T09:07:59.863Z,26.33
2022-07-29T09:10:28.585Z,26.56
2022-07-29T09:12:57.288Z,27.34
2022-07-29T09:15:26.494Z,27.97
2022-07-29T09:17:56.350Z,26.76
2022-07-29T09:20:25.333Z,27.51
2022-07-29T09:22:55.339Z,27.38
2022-07-29T09:25:42.937Z,27.86
2022-07-29T09:28:13.648Z,27.79
2022-07-29T09:30:54.054Z,29.01
2022-07-29T09:33:24.401Z,28.34
2022-07-29T09:36:02.456Z,27.04
2022-07-29T09:38:34.370Z,26.84
2022-07-29T09:41:05.787Z,27.69
2022-07-29T09:43:35.827Z,28.28
2022-07-29T09:46:13.491Z,26.56
2022-07-29T09:48:42.400Z,26.73
2022-07-29T09:51:24.117Z,26.80
2022-07-29T09:53:56.836Z,26.82
2022-07-29T09:56:41.488Z,27.16
2022-07-29T09:59:12.235Z,26.76
2022-07-29T10:01:40.705Z,28.01
2022-07-29T10:04:09.270Z,27.30
2022-07-29T10:06:37.729Z,27.53
2022-07-29T10:09:13.994Z,28.58
2022-07-29T10:11:49.671Z,30.42
2022-07-29T10:14:18.557Z,28.24
2022-07-29T10:16:47.063Z,30.46
2022-07-29T10:19:16.469Z,27.88
2022-07-29T10:21:45.863Z,27.72
2022-07-29T10:24:15.880Z,29.04
2022-07-29T10:26:45.707Z,29.70
2022-07-29T10:29:14.377Z,30.50
2022-07-29T10:31:53.065Z,27.84
2022-07-29T10:34:32.528Z,27.27
2022-07-29T10:37:15.290Z,27.43
2022-07-29T10:39:58.574Z,27.34
2022-07-29T10:42:34.507Z,27.85
2022-07-29T10:45:05.094Z,28.74
2022-07-29T10:47:35.338Z,29.00
2022-07-29T10:50:07.372Z,28.81
2022-07-29T10:52:57.958Z,27.36
2022-07-29T10:55:44.560Z,27.91
2022-07-29T10:58:19.381Z,28.97
2022-07-29T11:00:49.692Z,29.40
2022-07-29T11:03:49.442Z,28.55
2022-07-29T11:06:26.338Z,28.87
2022-07-29T11:09:34.832Z,28.72
2022-07-29T11:12:49.486Z,30.86
2022-07-29T11:15:21.828Z,31.03
2022-07-29T11:18:08.084Z,29.60
2022-07-29T11:20:46.731Z,29.23
2022-07-29T11:23:33.774Z,29.52
2022-07-29T11:26:21.202Z,28.58
2022-07-29T11:29:03.742Z,29.24
2022-07-29T11:31:42.508Z,28.23
2022-07-29T11:34:27.793Z,31.65
2022-07-29T11:37:28.001Z,31.58
2022-07-29T11:40:18.414Z,29.69
2022-07-29T11:42:48.742Z,31.10
2022-07-29T11:45:47.730Z,29.75
2022-07-29T11:51:13.316Z,29.63
2022-07-29T11:53:42.350Z,30.07
2022-07-29T11:56:11.381Z,30.48
2022-07-29T11:58:45.437Z,29.96
2022-07-29T12:01:19.771Z,30.68
2022-07-29T12:03:48.267Z,30.57
2022-07-29T12:06:18.321Z,30.44
2022-07-29T12:07:02.107Z,30.29
2022-07-29T12:08:47.660Z,31.04
2022-07-29T12:11:21.748Z,30.26
2022-07-29T12:13:51.701Z,30.93
2022-07-29T12:16:25.390Z,32.24
2022-07-29T12:18:59.818Z,30.57
2022-07-29T12:21:29.340Z,31.51
2022-07-29T12:24:05.791Z,31.66
2022-07-29T12:26:40.381Z,31.11
2022-07-29T12:29:15.689Z,31.35
2022-07-29T12:31:55.078Z,31.69
2022-07-29T12:34:29.225Z,32.22
2022-07-29T12:36:57.934Z,32.13
2022-07-29T12:39:28.766Z,31.86
2022-07-29T12:42:04.618Z,31.98
2022-07-29T12:44:50.008Z,33.88
2022-07-29T12:47:21.575Z,32.08
2022-07-29T12:49:51.404Z,31.67
2022-07-29T12:52:34.462Z,32.57
2022-07-29T12:55:03.501Z,32.35
2022-07-29T12:57:32.946Z,31.31
2022-07-29T13:00:07.574Z,31.71
2022-07-29T13:02:37.770Z,31.66
2022-07-29T13:05:09.271Z,31.62
2022-07-29T13:07:55.254Z,31.78
2022-07-29T13:10:26.023Z,31.44
2022-07-29T13:13:10.388Z,31.95
2022-07-29T13:15:40.517Z,33.06
2022-07-29T13:18:29.839Z,32.54
2022-07-29T13:20:58.715Z,30.94
2022-07-29T13:23:27.114Z,33.01
2022-07-29T13:25:55.493Z,32.66
2022-07-29T13:28:23.976Z,32.11
2022-07-29T13:30:52.470Z,32.19
2022-07-29T13:33:22.293Z,33.06
2022-07-29T13:35:50.710Z,32.53
2022-07-29T13:38:19.289Z,33.70
2022-07-29T13:40:47.801Z,35.10
2022-07-29T13:43:16.444Z,32.70
2022-07-29T13:45:44.930Z,34.37
2022-07-29T13:48:13.305Z,32.44
2022-07-29T13:50:43.103Z,36.10
2022-07-29T13:53:11.539Z,32.08
2022-07-29T13:55:46.549Z,31.80
2022-07-29T13:58:15.712Z,33.81
2022-07-29T14:00:44.161Z,36.07
2022-07-29T14:03:12.552Z,35.68
2022-07-29T14:05:42.399Z,36.36
2022-07-29T14:08:10.844Z,32.67
2022-07-29T14:10:39.321Z,34.55
2022-07-29T14:13:24.606Z,35.82
2022-07-29T14:15:53.956Z,36.22
2022-07-29T14:18:22.437Z,35.14
2022-07-29T14:20:52.669Z,36.83
2022-07-29T14:23:21.099Z,34.66
2022-07-29T14:25:49.674Z,36.42
2022-07-29T14:28:18.216Z,35.89
2022-07-29T14:30:46.715Z,36.35
2022-07-29T14:33:15.179Z,35.04
2022-07-29T14:35:43.625Z,35.71
2022-07-29T14:38:13.497Z,36.53
2022-07-29T14:40:42.039Z,36.19
2022-07-29T14:43:10.481Z,37.11
2022-07-29T14:45:39.013Z,37.95
2022-07-29T14:48:07.858Z,38.22
2022-07-29T14:50:36.365Z,38.73
2022-07-29T14:53:04.988Z,40.33
2022-07-29T14:55:34.763Z,44.11
2022-07-29T14:58:09.837Z,46.80
2022-07-29T15:00:40.595Z,46.67
2022-07-29T15:03:11.121Z,46.25
2022-07-29T15:05:39.854Z,47.74
2022-07-29T15:08:09.142Z,47.94
2022-07-29T15:10:38.985Z,47.80
2022-07-29T15:13:07.464Z,47.53
2022-07-29T15:15:35.869Z,47.62
2022-07-29T15:18:04.646Z,48.50
2022-07-29T15:20:33.185Z,45.74
2022-07-29T15:23:01.663Z,45.14
2022-07-29T15:25:30.076Z,44.49
2022-07-29T15:28:03.219Z,43.11
2022-07-29T15:30:34.410Z,44.05
2022-07-29T15:33:04.160Z,41.52
2022-07-29T15:35:32.900Z,40.97
2022-07-29T15:38:01.449Z,40.89
2022-07-29T15:40:30.109Z,40.21
2022-07-29T15:43:06.453Z,39.39
2022-07-29T15:45:40.488Z,38.91
2022-07-29T15:48:14.713Z,39.16
2022-07-29T15:50:46.946Z,38.56
2022-07-29T15:53:15.956Z,39.19
2022-07-29T15:55:44.363Z,38.50
2022-07-29T15:58:14.552Z,38.33
2022-07-29T16:00:43.069Z,38.95
2022-07-29T16:03:11.638Z,38.63
2022-07-29T16:05:40.160Z,38.47
2022-07-29T16:08:08.590Z,38.20
2022-07-29T16:10:37.069Z,35.57
2022-07-29T16:13:05.789Z,37.03
2022-07-29T16:15:35.619Z,40.33
2022-07-29T16:18:04.152Z,44.09
2022-07-29T16:20:32.553Z,46.87
2022-07-29T16:23:01.697Z,48.17
2022-07-29T16:25:57.627Z,49.08
2022-07-29T16:28:18.631Z,50.14
2022-07-29T16:30:48.421Z,51.76
2022-07-29T16:33:16.856Z,52.33
2022-07-29T16:35:45.368Z,52.43
2022-07-29T16:38:13.770Z,52.78
2022-07-29T16:40:42.231Z,52.34
2022-07-29T16:43:10.886Z,52.47
2022-07-29T16:45:41.859Z,52.28
2022-07-29T16:48:18.046Z,52.07
2022-07-29T16:50:47.187Z,52.50
2022-07-29T16:53:15.858Z,52.85
2022-07-29T16:55:44.386Z,53.01
2022-07-29T16:58:13.024Z,52.65
2022-07-29T17:00:41.693Z,52.41
2022-07-29T17:03:10.221Z,52.42
2022-07-29T17:05:52.680Z,52.19
2022-07-29T17:08:22.895Z,52.96
2022-07-29T17:10:51.666Z,52.88
2022-07-29T17:13:20.345Z,53.48
2022-07-29T17:15:48.864Z,53.94
2022-07-29T17:18:17.395Z,53.98
2022-07-29T17:20:47.248Z,54.13
2022-07-29T17:23:15.738Z,53.77
2022-07-29T17:25:44.133Z,53.53
2022-07-29T17:28:12.489Z,52.95
2022-07-29T17:30:40.921Z,53.30
2022-07-29T17:33:09.385Z,53.51
2022-07-29T17:35:55.205Z,53.62
2022-07-29T17:38:25.138Z,54.71
2022-07-29T17:40:53.554Z,54.77
2022-07-29T17:43:22.062Z,54.49
2022-07-29T17:45:50.963Z,54.88
2022-07-29T17:48:19.813Z,54.67
2022-07-29T17:50:49.611Z,54.56
2022-07-29T17:53:18.521Z,54.50
2022-07-29T17:55:48.834Z,53.92
2022-07-29T17:58:17.921Z,53.70
2022-07-29T18:00:46.367Z,53.73
2022-07-29T18:03:14.975Z,53.59
2022-07-29T18:05:43.742Z,53.90
2022-07-29T18:08:12.957Z,54.10
2022-07-29T18:10:42.414Z,53.88
2022-07-29T18:13:13.266Z,54.13
2022-07-29T18:15:42.268Z,60.40
2022-07-29T18:18:10.781Z,62.66
2022-07-29T18:20:39.553Z,64.88
2022-07-29T18:23:08.321Z,67.04
2022-07-29T18:25:36.995Z,70.10
2022-07-29T18:28:06.486Z,70.61
2022-07-29T18:30:37.860Z,71.00
2022-07-29T18:33:24.286Z,68.99
2022-07-29T18:36:10.090Z,68.71
2022-07-29T18:38:41.161Z,67.99
2022-07-29T18:41:09.538Z,67.88
2022-07-29T18:43:38.092Z,69.18
2022-07-29T18:46:07.969Z,65.05
2022-07-29T18:48:36.728Z,65.75
2022-07-29T18:51:09.323Z,66.04
2022-07-29T18:53:38.542Z,67.78
2022-07-29T18:56:07.107Z,68.57
2022-07-29T18:58:37.120Z,67.49
2022-07-29T19:01:07.275Z,67.49
2022-07-29T19:03:36.571Z,66.75
2022-07-29T19:06:05.450Z,65.76
2022-07-29T19:08:36.050Z,64.83
2022-07-29T19:11:04.581Z,66.12
2022-07-29T19:13:33.211Z,66.49
2022-07-29T19:16:01.890Z,65.36
2022-07-29T19:18:31.778Z,65.83
2022-07-29T19:21:00.263Z,66.36
2022-07-29T19:23:28.649Z,65.59
2022-07-29T19:25:57.237Z,64.50
2022-07-29T19:28:26.522Z,63.03
2022-07-29T19:30:55.101Z,64.06
2022-07-29T19:33:23.644Z,64.83
2022-07-29T19:35:55.059Z,64.94
2022-07-29T19:38:23.737Z,65.19
2022-07-29T19:40:52.373Z,66.45
2022-07-29T19:43:50.480Z,66.68
2022-07-29T19:46:09.668Z,66.55
2022-07-29T19:48:38.243Z,67.08
2022-07-29T19:51:08.125Z,66.23
2022-07-29T19:53:36.761Z,66.10
2022-07-29T19:56:06.362Z,67.23
2022-07-29T19:58:37.549Z,68.15
2022-07-29T20:01:10.490Z,68.31
2022-07-29T20:03:40.734Z,68.66
2022-07-29T20:06:10.589Z,68.41
2022-07-29T20:08:39.164Z,67.37
2022-07-29T20:11:08.066Z,67.42
2022-07-29T20:13:36.772Z,67.80
2022-07-29T20:16:08.294Z,67.60
2022-07-29T20:18:37.289Z,67.62
2022-07-29T20:21:05.883Z,67.62
2022-07-29T20:23:35.705Z,68.09
2022-07-29T20:26:08.712Z,68.69
2022-07-29T20:28:40.198Z,69.23
2022-07-29T20:31:09.114Z,69.50
2022-07-29T20:33:37.751Z,70.42
2022-07-29T20:36:07.343Z,71.03
2022-07-29T20:38:37.204Z,71.25
2022-07-29T20:41:06.016Z,71.42
2022-07-29T20:43:36.116Z,71.26
2022-07-29T20:46:07.782Z,72.16
2022-07-29T20:48:36.418Z,72.19
2022-07-29T20:51:04.945Z,72.81
2022-07-29T20:53:33.859Z,73.00
2022-07-29T20:56:04.160Z,72.77
2022-07-29T20:58:34.063Z,73.28
2022-07-29T21:01:02.866Z,73.53
2022-07-29T21:03:31.559Z,73.66
2022-07-29T21:06:00.969Z,73.58
2022-07-29T21:08:29.824Z,73.55
2022-07-29T21:10:58.582Z,72.96
2022-07-29T21:13:28.656Z,72.58
2022-07-29T21:16:02.602Z,72.90
2022-07-29T21:18:37.305Z,72.84
2022-07-29T21:21:06.814Z,74.20
2022-07-29T21:23:36.073Z,74.92
2022-07-29T21:26:09.821Z,75.18
2022-07-29T21:28:41.665Z,75.72
2022-07-29T21:31:13.535Z,75.73
2022-07-29T21:33:44.363Z,76.00
2022-07-29T21:36:46.574Z,75.99
2022-07-29T21:39:07.066Z,77.05
2022-07-29T21:41:36.435Z,75.68
2022-07-29T21:44:06.319Z,76.39
2022-07-29T21:46:36.531Z,76.38
2022-07-29T21:49:05.118Z,76.37
2022-07-29T21:51:33.680Z,76.06
2022-07-29T21:54:02.148Z,76.20
2022-07-29T21:56:31.593Z,76.82
2022-07-29T21:59:00.837Z,76.75
2022-07-29T22:01:39.432Z,76.84
2022-07-29T22:04:08.089Z,77.63
2022-07-29T22:06:36.575Z,77.92
2022-07-29T22:09:05.449Z,77.80
2022-07-29T22:11:33.990Z,77.81
2022-07-29T22:14:02.390Z,78.28
2022-07-29T22:16:32.328Z,78.93
2022-07-29T22:19:00.853Z,80.15
2022-07-29T22:21:29.389Z,79.94
2022-07-29T22:23:57.807Z,79.65
2022-07-29T22:26:26.350Z,79.67
2022-07-29T22:28:54.817Z,79.65
2022-07-29T22:31:23.500Z,79.98
2022-07-29T22:33:53.910Z,80.04
2022-07-29T22:36:22.420Z,80.37
2022-07-29T22:38:52.117Z,80.42
2022-07-29T22:41:20.857Z,80.35
2022-07-29T22:43:49.293Z,80.93
2022-07-29T22:46:18.059Z,80.73
2022-07-29T22:48:46.717Z,80.72
2022-07-29T22:51:16.575Z,81.20
2022-07-29T22:53:45.128Z,81.03
2022-07-29T22:56:14.042Z,80.44
2022-07-29T22:58:42.488Z,80.97
2022-07-29T23:01:11.141Z,80.03
2022-07-29T23:03:42.098Z,79.72
2022-07-29T23:06:21.354Z,80.00
2022-07-29T23:08:49.748Z,79.78
2022-07-29T23:11:18.399Z,80.12
2022-07-29T23:13:47.047Z,79.87
2022-07-29T23:16:15.569Z,79.74
2022-07-29T23:18:55.761Z,79.49
2022-07-29T23:21:26.309Z,79.08
2022-07-29T23:23:54.804Z,78.80
2022-07-29T23:26:23.443Z,78.48
2022-07-29T23:28:51.968Z,77.88
2022-07-29T23:31:20.746Z,77.62
2022-07-29T23:33:49.206Z,77.27
2022-07-29T23:36:19.684Z,76.82
2022-07-29T23:38:49.703Z,76.49
2022-07-29T23:41:18.280Z,76.49
2022-07-29T23:43:46.690Z,76.84
2022-07-29T23:46:15.421Z,77.00
2022-07-29T23:48:43.888Z,77.02
2022-07-29T23:51:12.483Z,76.19
2022-07-29T23:53:53.654Z,76.12
2022-07-29T23:56:24.207Z,75.93
2022-07-29T23:58:52.680Z,75.42
